sensor_id;sensor_type;location;lat;lon;timestamp;temperature;humidity
11005;DHT22;5555;59.622;16.556;2023-04-25T00:01:11;2.90;99.90
11005;DHT22;5555;59.622;16.556;2023-04-25T00:03:38;2.90;99.90
11005;DHT22;5555;59.622;16.556;2023-04-25T00:06:04;2.90;99.90
11005;DHT22;5555;59.622;16.556;2023-04-25T00:08:30;2.90;99.90
11005;DHT22;5555;59.622;16.556;2023-04-25T00:10:57;2.80;99.90
11005;DHT22;5555;59.622;16.556;2023-04-25T00:13:22;2.80;99.90
11005;DHT22;5555;59.622;16.556;2023-04-25T00:15:48;2.80;99.90
11005;DHT22;5555;59.622;16.556;2023-04-25T00:18:14;2.80;99.90
11005;DHT22;5555;59.622;16.556;2023-04-25T00:20:40;2.80;99.90
11005;DHT22;5555;59.622;16.556;2023-04-25T00:23:09;2.80;99.90
11005;DHT22;5555;59.622;16.556;2023-04-25T00:25:35;2.80;99.90
11005;DHT22;5555;59.622;16.556;2023-04-25T00:28:01;2.80;99.90
11005;DHT22;5555;59.622;16.556;2023-04-25T00:30:26;2.80;99.90
11005;DHT22;5555;59.622;16.556;2023-04-25T00:32:52;2.70;99.90
11005;DHT22;5555;59.622;16.556;2023-04-25T00:35:18;2.80;99.90
11005;DHT22;5555;59.622;16.556;2023-04-25T00:37:44;2.80;99.90
11005;DHT22;5555;59.622;16.556;2023-04-25T00:40:10;2.80;99.90
11005;DHT22;5555;59.622;16.556;2023-04-25T00:42:36;2.80;99.90
11005;DHT22;5555;59.622;16.556;2023-04-25T00:45:05;2.70;99.90
11005;DHT22;5555;59.622;16.556;2023-04-25T00:47:31;2.70;99.90
11005;DHT22;5555;59.622;16.556;2023-04-25T00:49:58;2.70;99.90
11005;DHT22;5555;59.622;16.556;2023-04-25T00:52:23;2.70;99.90
11005;DHT22;5555;59.622;16.556;2023-04-25T00:54:49;2.60;99.90
11005;DHT22;5555;59.622;16.556;2023-04-25T00:57:15;2.70;99.90
11005;DHT22;5555;59.622;16.556;2023-04-25T00:59:44;2.70;99.90
11005;DHT22;5555;59.622;16.556;2023-04-25T01:02:10;2.70;99.90
11005;DHT22;5555;59.622;16.556;2023-04-25T01:04:36;2.70;99.90
11005;DHT22;5555;59.622;16.556;2023-04-25T01:07:02;2.60;99.90
11005;DHT22;5555;59.622;16.556;2023-04-25T01:09:30;2.70;99.90
11005;DHT22;5555;59.622;16.556;2023-04-25T01:11:56;2.70;99.90
11005;DHT22;5555;59.622;16.556;2023-04-25T01:14:23;2.70;99.90
11005;DHT22;5555;59.622;16.556;2023-04-25T01:16:48;2.70;99.90
11005;DHT22;5555;59.622;16.556;2023-04-25T01:19:16;2.70;99.90
11005;DHT22;5555;59.622;16.556;2023-04-25T01:21:43;2.60;99.90
11005;DHT22;5555;59.622;16.556;2023-04-25T01:24:09;2.70;99.90
11005;DHT22;5555;59.622;16.556;2023-04-25T01:26:36;2.60;99.90
11005;DHT22;5555;59.622;16.556;2023-04-25T01:29:03;2.60;99.90
11005;DHT22;5555;59.622;16.556;2023-04-25T01:31:29;2.60;99.90
11005;DHT22;5555;59.622;16.556;2023-04-25T01:33:55;2.60;99.90
11005;DHT22;5555;59.622;16.556;2023-04-25T01:36:21;2.60;99.90
11005;DHT22;5555;59.622;16.556;2023-04-25T01:38:47;2.60;99.90
11005;DHT22;5555;59.622;16.556;2023-04-25T01:41:14;2.70;99.90
11005;DHT22;5555;59.622;16.556;2023-04-25T01:43:40;2.60;99.90
11005;DHT22;5555;59.622;16.556;2023-04-25T01:46:06;2.60;99.90
11005;DHT22;5555;59.622;16.556;2023-04-25T01:48:31;2.60;99.90
11005;DHT22;5555;59.622;16.556;2023-04-25T01:50:57;2.60;99.90
11005;DHT22;5555;59.622;16.556;2023-04-25T01:53:24;2.60;99.90
11005;DHT22;5555;59.622;16.556;2023-04-25T01:55:50;2.60;99.90
11005;DHT22;5555;59.622;16.556;2023-04-25T01:58:15;2.50;99.90
11005;DHT22;5555;59.622;16.556;2023-04-25T02:00:41;2.50;99.90
11005;DHT22;5555;59.622;16.556;2023-04-25T02:03:07;2.60;99.90
11005;DHT22;5555;59.622;16.556;2023-04-25T02:05:37;2.50;99.90
11005;DHT22;5555;59.622;16.556;2023-04-25T02:08:05;2.50;99.90
11005;DHT22;5555;59.622;16.556;2023-04-25T02:10:31;2.60;99.90
11005;DHT22;5555;59.622;16.556;2023-04-25T02:12:57;2.50;99.90
11005;DHT22;5555;59.622;16.556;2023-04-25T02:15:23;2.50;99.90
11005;DHT22;5555;59.622;16.556;2023-04-25T02:17:49;2.60;99.90
11005;DHT22;5555;59.622;16.556;2023-04-25T02:20:15;2.50;99.90
11005;DHT22;5555;59.622;16.556;2023-04-25T02:22:41;2.50;99.90
11005;DHT22;5555;59.622;16.556;2023-04-25T02:25:08;2.50;99.90
11005;DHT22;5555;59.622;16.556;2023-04-25T02:27:34;2.50;99.90
11005;DHT22;5555;59.622;16.556;2023-04-25T02:30:00;2.50;99.90
11005;DHT22;5555;59.622;16.556;2023-04-25T02:32:26;2.50;99.90
11005;DHT22;5555;59.622;16.556;2023-04-25T02:34:52;2.40;99.90
11005;DHT22;5555;59.622;16.556;2023-04-25T02:37:18;2.40;99.90
11005;DHT22;5555;59.622;16.556;2023-04-25T02:39:44;2.40;99.90
11005;DHT22;5555;59.622;16.556;2023-04-25T02:42:10;2.40;99.90
11005;DHT22;5555;59.622;16.556;2023-04-25T02:44:36;2.50;99.90
11005;DHT22;5555;59.622;16.556;2023-04-25T02:47:01;2.40;99.90
11005;DHT22;5555;59.622;16.556;2023-04-25T02:49:27;2.50;99.90
11005;DHT22;5555;59.622;16.556;2023-04-25T02:51:52;2.50;99.90
11005;DHT22;5555;59.622;16.556;2023-04-25T02:54:18;2.50;99.90
11005;DHT22;5555;59.622;16.556;2023-04-25T02:56:44;2.50;99.90
11005;DHT22;5555;59.622;16.556;2023-04-25T02:59:09;2.50;99.90
11005;DHT22;5555;59.622;16.556;2023-04-25T03:01:35;2.50;99.90
11005;DHT22;5555;59.622;16.556;2023-04-25T03:04:00;2.50;99.90
11005;DHT22;5555;59.622;16.556;2023-04-25T03:06:26;2.50;99.90
11005;DHT22;5555;59.622;16.556;2023-04-25T03:08:51;2.60;99.90
11005;DHT22;5555;59.622;16.556;2023-04-25T03:11:17;2.50;99.90
11005;DHT22;5555;59.622;16.556;2023-04-25T03:13:43;2.40;99.90
11005;DHT22;5555;59.622;16.556;2023-04-25T03:16:08;2.40;99.90
11005;DHT22;5555;59.622;16.556;2023-04-25T03:18:34;2.40;99.90
11005;DHT22;5555;59.622;16.556;2023-04-25T03:20:59;2.40;99.90
11005;DHT22;5555;59.622;16.556;2023-04-25T03:23:25;2.40;99.90
11005;DHT22;5555;59.622;16.556;2023-04-25T03:25:51;2.40;99.90
11005;DHT22;5555;59.622;16.556;2023-04-25T03:28:17;2.40;99.90
11005;DHT22;5555;59.622;16.556;2023-04-25T03:30:42;2.40;99.90
11005;DHT22;5555;59.622;16.556;2023-04-25T03:33:08;2.50;99.90
11005;DHT22;5555;59.622;16.556;2023-04-25T03:35:33;2.50;99.90
11005;DHT22;5555;59.622;16.556;2023-04-25T03:37:59;2.50;99.90
11005;DHT22;5555;59.622;16.556;2023-04-25T03:40:25;2.50;99.90
11005;DHT22;5555;59.622;16.556;2023-04-25T03:42:50;2.50;99.90
11005;DHT22;5555;59.622;16.556;2023-04-25T03:45:16;2.50;99.90
11005;DHT22;5555;59.622;16.556;2023-04-25T03:47:41;2.40;99.90
11005;DHT22;5555;59.622;16.556;2023-04-25T03:50:07;2.40;99.90
11005;DHT22;5555;59.622;16.556;2023-04-25T03:52:33;2.50;99.90
11005;DHT22;5555;59.622;16.556;2023-04-25T03:54:58;2.50;99.90
11005;DHT22;5555;59.622;16.556;2023-04-25T03:57:24;2.50;99.90
11005;DHT22;5555;59.622;16.556;2023-04-25T03:59:50;2.40;99.90
11005;DHT22;5555;59.622;16.556;2023-04-25T04:02:15;2.40;99.90
11005;DHT22;5555;59.622;16.556;2023-04-25T04:04:41;2.50;99.90
11005;DHT22;5555;59.622;16.556;2023-04-25T04:07:09;2.50;99.90
11005;DHT22;5555;59.622;16.556;2023-04-25T04:09:35;2.50;99.90
11005;DHT22;5555;59.622;16.556;2023-04-25T04:12:01;2.50;99.90
11005;DHT22;5555;59.622;16.556;2023-04-25T04:14:27;2.50;99.90
11005;DHT22;5555;59.622;16.556;2023-04-25T04:16:52;2.50;99.90
11005;DHT22;5555;59.622;16.556;2023-04-25T04:19:18;2.50;99.90
11005;DHT22;5555;59.622;16.556;2023-04-25T04:21:43;2.50;99.90
11005;DHT22;5555;59.622;16.556;2023-04-25T04:24:09;2.60;99.90
11005;DHT22;5555;59.622;16.556;2023-04-25T04:26:35;2.60;99.90
11005;DHT22;5555;59.622;16.556;2023-04-25T04:29:02;2.60;99.90
11005;DHT22;5555;59.622;16.556;2023-04-25T04:31:28;2.60;99.90
11005;DHT22;5555;59.622;16.556;2023-04-25T04:33:55;2.60;99.90
11005;DHT22;5555;59.622;16.556;2023-04-25T04:36:20;2.60;99.90
11005;DHT22;5555;59.622;16.556;2023-04-25T04:38:48;2.60;99.90
11005;DHT22;5555;59.622;16.556;2023-04-25T04:41:14;2.60;99.90
11005;DHT22;5555;59.622;16.556;2023-04-25T04:43:39;2.60;99.90
11005;DHT22;5555;59.622;16.556;2023-04-25T04:46:05;2.70;99.90
11005;DHT22;5555;59.622;16.556;2023-04-25T04:48:34;2.70;99.90
11005;DHT22;5555;59.622;16.556;2023-04-25T04:51:00;2.70;99.90
11005;DHT22;5555;59.622;16.556;2023-04-25T04:53:26;2.60;99.90
11005;DHT22;5555;59.622;16.556;2023-04-25T04:55:52;2.70;99.90
11005;DHT22;5555;59.622;16.556;2023-04-25T04:58:18;2.70;99.90
11005;DHT22;5555;59.622;16.556;2023-04-25T05:00:44;2.70;99.90
11005;DHT22;5555;59.622;16.556;2023-04-25T05:03:10;2.80;99.90
11005;DHT22;5555;59.622;16.556;2023-04-25T05:05:37;2.80;99.90
11005;DHT22;5555;59.622;16.556;2023-04-25T05:08:05;2.80;99.90
11005;DHT22;5555;59.622;16.556;2023-04-25T05:10:31;2.80;99.90
11005;DHT22;5555;59.622;16.556;2023-04-25T05:12:57;2.90;99.90
11005;DHT22;5555;59.622;16.556;2023-04-25T05:15:22;2.90;99.90
11005;DHT22;5555;59.622;16.556;2023-04-25T05:17:48;2.80;99.90
11005;DHT22;5555;59.622;16.556;2023-04-25T05:20:13;2.80;99.90
11005;DHT22;5555;59.622;16.556;2023-04-25T05:22:39;2.80;99.90
11005;DHT22;5555;59.622;16.556;2023-04-25T05:25:07;2.90;99.90
11005;DHT22;5555;59.622;16.556;2023-04-25T05:27:33;2.90;99.90
11005;DHT22;5555;59.622;16.556;2023-04-25T05:29:59;3.00;99.90
11005;DHT22;5555;59.622;16.556;2023-04-25T05:32:24;3.00;99.90
11005;DHT22;5555;59.622;16.556;2023-04-25T05:34:50;3.00;99.90
11005;DHT22;5555;59.622;16.556;2023-04-25T05:37:17;3.00;99.90
11005;DHT22;5555;59.622;16.556;2023-04-25T05:39:42;3.00;99.90
11005;DHT22;5555;59.622;16.556;2023-04-25T05:42:08;3.10;99.90
11005;DHT22;5555;59.622;16.556;2023-04-25T05:44:34;3.00;99.90
11005;DHT22;5555;59.622;16.556;2023-04-25T05:46:59;3.00;99.90
11005;DHT22;5555;59.622;16.556;2023-04-25T05:49:25;3.00;99.90
11005;DHT22;5555;59.622;16.556;2023-04-25T05:51:51;3.00;99.90
11005;DHT22;5555;59.622;16.556;2023-04-25T05:54:16;3.00;99.90
11005;DHT22;5555;59.622;16.556;2023-04-25T05:56:42;3.00;99.90
11005;DHT22;5555;59.622;16.556;2023-04-25T05:59:07;3.10;99.90
11005;DHT22;5555;59.622;16.556;2023-04-25T06:01:33;3.10;99.90
11005;DHT22;5555;59.622;16.556;2023-04-25T06:03:59;3.10;99.90
11005;DHT22;5555;59.622;16.556;2023-04-25T06:06:24;3.20;99.90
11005;DHT22;5555;59.622;16.556;2023-04-25T06:08:52;3.30;99.90
11005;DHT22;5555;59.622;16.556;2023-04-25T06:11:17;3.30;99.90
11005;DHT22;5555;59.622;16.556;2023-04-25T06:13:43;3.20;99.90
11005;DHT22;5555;59.622;16.556;2023-04-25T06:16:08;3.20;99.90
11005;DHT22;5555;59.622;16.556;2023-04-25T06:18:34;3.10;99.90
11005;DHT22;5555;59.622;16.556;2023-04-25T06:21:00;3.10;99.90
11005;DHT22;5555;59.622;16.556;2023-04-25T06:23:26;3.10;99.90
11005;DHT22;5555;59.622;16.556;2023-04-25T06:25:51;3.10;99.90
11005;DHT22;5555;59.622;16.556;2023-04-25T06:28:17;3.10;99.90
11005;DHT22;5555;59.622;16.556;2023-04-25T06:30:43;3.20;99.90
11005;DHT22;5555;59.622;16.556;2023-04-25T06:33:08;3.20;99.90
11005;DHT22;5555;59.622;16.556;2023-04-25T06:35:34;3.20;99.90
11005;DHT22;5555;59.622;16.556;2023-04-25T06:38:00;3.10;99.90
11005;DHT22;5555;59.622;16.556;2023-04-25T06:40:25;3.20;99.90
11005;DHT22;5555;59.622;16.556;2023-04-25T06:42:51;3.20;99.90
11005;DHT22;5555;59.622;16.556;2023-04-25T06:45:16;3.30;99.90
11005;DHT22;5555;59.622;16.556;2023-04-25T06:47:42;3.30;99.90
11005;DHT22;5555;59.622;16.556;2023-04-25T06:50:08;3.40;99.90
11005;DHT22;5555;59.622;16.556;2023-04-25T06:52:34;3.40;99.90
11005;DHT22;5555;59.622;16.556;2023-04-25T06:54:59;3.40;99.90
11005;DHT22;5555;59.622;16.556;2023-04-25T06:57:25;3.40;99.90
11005;DHT22;5555;59.622;16.556;2023-04-25T06:59:51;3.40;99.90
11005;DHT22;5555;59.622;16.556;2023-04-25T07:02:16;3.60;99.90
11005;DHT22;5555;59.622;16.556;2023-04-25T07:04:42;3.60;99.90
11005;DHT22;5555;59.622;16.556;2023-04-25T07:07:08;3.60;99.90
11005;DHT22;5555;59.622;16.556;2023-04-25T07:09:34;3.50;99.90
11005;DHT22;5555;59.622;16.556;2023-04-25T07:12:00;3.40;99.90
11005;DHT22;5555;59.622;16.556;2023-04-25T07:14:27;3.40;99.90
11005;DHT22;5555;59.622;16.556;2023-04-25T07:16:52;3.30;99.90
11005;DHT22;5555;59.622;16.556;2023-04-25T07:19:18;3.40;99.90
11005;DHT22;5555;59.622;16.556;2023-04-25T07:21:44;3.40;99.90
11005;DHT22;5555;59.622;16.556;2023-04-25T07:24:09;3.30;99.90
11005;DHT22;5555;59.622;16.556;2023-04-25T07:26:35;3.40;99.90
11005;DHT22;5555;59.622;16.556;2023-04-25T07:29:01;3.50;99.90
11005;DHT22;5555;59.622;16.556;2023-04-25T07:31:26;3.50;99.90
11005;DHT22;5555;59.622;16.556;2023-04-25T07:33:52;3.70;99.90
11005;DHT22;5555;59.622;16.556;2023-04-25T07:36:18;3.80;99.90
11005;DHT22;5555;59.622;16.556;2023-04-25T07:38:43;3.80;99.90
11005;DHT22;5555;59.622;16.556;2023-04-25T07:41:09;3.90;99.90
11005;DHT22;5555;59.622;16.556;2023-04-25T07:43:34;3.90;99.90
11005;DHT22;5555;59.622;16.556;2023-04-25T07:46:00;3.80;99.90
11005;DHT22;5555;59.622;16.556;2023-04-25T07:48:26;3.90;99.90
11005;DHT22;5555;59.622;16.556;2023-04-25T07:50:51;3.80;99.90
11005;DHT22;5555;59.622;16.556;2023-04-25T07:53:17;3.90;99.90
11005;DHT22;5555;59.622;16.556;2023-04-25T07:55:43;3.80;99.90
11005;DHT22;5555;59.622;16.556;2023-04-25T07:58:11;3.80;99.90
11005;DHT22;5555;59.622;16.556;2023-04-25T08:00:36;3.90;99.90
11005;DHT22;5555;59.622;16.556;2023-04-25T08:03:03;3.80;99.90
11005;DHT22;5555;59.622;16.556;2023-04-25T08:05:29;3.70;99.90
11005;DHT22;5555;59.622;16.556;2023-04-25T08:07:54;3.70;99.90
11005;DHT22;5555;59.622;16.556;2023-04-25T08:10:22;3.70;99.90
11005;DHT22;5555;59.622;16.556;2023-04-25T08:12:48;3.80;99.90
11005;DHT22;5555;59.622;16.556;2023-04-25T08:15:14;3.80;99.90
11005;DHT22;5555;59.622;16.556;2023-04-25T08:17:40;3.80;99.90
11005;DHT22;5555;59.622;16.556;2023-04-25T08:20:06;3.90;99.90
11005;DHT22;5555;59.622;16.556;2023-04-25T08:22:32;4.10;99.90
11005;DHT22;5555;59.622;16.556;2023-04-25T08:24:57;4.10;99.90
11005;DHT22;5555;59.622;16.556;2023-04-25T08:27:23;4.10;99.90
11005;DHT22;5555;59.622;16.556;2023-04-25T08:29:49;4.10;99.90
11005;DHT22;5555;59.622;16.556;2023-04-25T08:32:15;4.20;99.90
11005;DHT22;5555;59.622;16.556;2023-04-25T08:34:41;4.30;99.90
11005;DHT22;5555;59.622;16.556;2023-04-25T08:37:08;4.40;99.90
11005;DHT22;5555;59.622;16.556;2023-04-25T08:39:38;4.40;99.90
11005;DHT22;5555;59.622;16.556;2023-04-25T08:42:06;4.40;99.90
11005;DHT22;5555;59.622;16.556;2023-04-25T08:44:35;4.40;99.90
11005;DHT22;5555;59.622;16.556;2023-04-25T08:47:05;4.50;99.90
11005;DHT22;5555;59.622;16.556;2023-04-25T08:49:32;4.70;99.90
11005;DHT22;5555;59.622;16.556;2023-04-25T08:52:03;4.80;99.90
11005;DHT22;5555;59.622;16.556;2023-04-25T08:54:31;5.00;99.90
11005;DHT22;5555;59.622;16.556;2023-04-25T08:57:00;4.80;99.90
11005;DHT22;5555;59.622;16.556;2023-04-25T08:59:28;4.80;99.90
11005;DHT22;5555;59.622;16.556;2023-04-25T09:01:54;4.90;99.90
11005;DHT22;5555;59.622;16.556;2023-04-25T09:04:20;5.10;99.90
11005;DHT22;5555;59.622;16.556;2023-04-25T09:06:47;5.10;99.90
11005;DHT22;5555;59.622;16.556;2023-04-25T09:09:12;5.20;99.90
11005;DHT22;5555;59.622;16.556;2023-04-25T09:11:39;5.20;99.90
11005;DHT22;5555;59.622;16.556;2023-04-25T09:14:20;5.20;99.90
11005;DHT22;5555;59.622;16.556;2023-04-25T09:19:32;5.30;99.90
11005;DHT22;5555;59.622;16.556;2023-04-25T09:21:59;5.30;99.90
11005;DHT22;5555;59.622;16.556;2023-04-25T09:24:40;5.40;99.90
11005;DHT22;5555;59.622;16.556;2023-04-25T09:27:09;5.40;99.90
11005;DHT22;5555;59.622;16.556;2023-04-25T09:29:36;5.60;99.90
11005;DHT22;5555;59.622;16.556;2023-04-25T09:34:42;5.90;99.90
11005;DHT22;5555;59.622;16.556;2023-04-25T09:37:11;6.20;99.90
11005;DHT22;5555;59.622;16.556;2023-04-25T09:39:38;6.00;99.90
11005;DHT22;5555;59.622;16.556;2023-04-25T09:42:05;6.00;99.90
11005;DHT22;5555;59.622;16.556;2023-04-25T09:44:30;6.10;99.90
11005;DHT22;5555;59.622;16.556;2023-04-25T09:46:56;6.30;99.90
11005;DHT22;5555;59.622;16.556;2023-04-25T09:49:23;6.20;99.90
11005;DHT22;5555;59.622;16.556;2023-04-25T09:51:59;6.30;99.90
11005;DHT22;5555;59.622;16.556;2023-04-25T09:54:25;6.30;99.90
11005;DHT22;5555;59.622;16.556;2023-04-25T09:56:52;6.40;99.90
11005;DHT22;5555;59.622;16.556;2023-04-25T09:59:22;6.20;99.90
11005;DHT22;5555;59.622;16.556;2023-04-25T10:01:50;6.20;99.90
11005;DHT22;5555;59.622;16.556;2023-04-25T10:04:20;6.10;99.90
11005;DHT22;5555;59.622;16.556;2023-04-25T10:06:49;5.90;99.90
11005;DHT22;5555;59.622;16.556;2023-04-25T10:09:16;5.90;99.90
11005;DHT22;5555;59.622;16.556;2023-04-25T10:11:46;6.20;99.90
11005;DHT22;5555;59.622;16.556;2023-04-25T10:14:14;5.90;99.90
11005;DHT22;5555;59.622;16.556;2023-04-25T10:16:40;6.00;99.90
11005;DHT22;5555;59.622;16.556;2023-04-25T10:19:07;6.20;99.90
11005;DHT22;5555;59.622;16.556;2023-04-25T10:21:33;6.50;99.90
11005;DHT22;5555;59.622;16.556;2023-04-25T10:24:00;6.40;99.90
11005;DHT22;5555;59.622;16.556;2023-04-25T10:26:26;6.70;99.90
11005;DHT22;5555;59.622;16.556;2023-04-25T10:29:00;6.60;99.90
11005;DHT22;5555;59.622;16.556;2023-04-25T10:31:26;6.60;99.90
11005;DHT22;5555;59.622;16.556;2023-04-25T10:33:53;6.50;99.90
11005;DHT22;5555;59.622;16.556;2023-04-25T10:36:23;6.60;99.90
11005;DHT22;5555;59.622;16.556;2023-04-25T10:38:50;6.60;99.90
11005;DHT22;5555;59.622;16.556;2023-04-25T10:41:18;6.90;99.90
11005;DHT22;5555;59.622;16.556;2023-04-25T10:43:45;7.20;99.90
11005;DHT22;5555;59.622;16.556;2023-04-25T10:46:24;7.10;99.90
11005;DHT22;5555;59.622;16.556;2023-04-25T10:48:54;6.90;99.90
11005;DHT22;5555;59.622;16.556;2023-04-25T10:51:24;6.80;99.90
11005;DHT22;5555;59.622;16.556;2023-04-25T10:56:29;7.10;99.90
11005;DHT22;5555;59.622;16.556;2023-04-25T10:59:14;6.70;99.90
11005;DHT22;5555;59.622;16.556;2023-04-25T11:01:48;6.80;99.90
11005;DHT22;5555;59.622;16.556;2023-04-25T11:04:23;7.10;99.90
11005;DHT22;5555;59.622;16.556;2023-04-25T11:07:23;7.40;99.90
11005;DHT22;5555;59.622;16.556;2023-04-25T11:09:52;7.70;99.90
11005;DHT22;5555;59.622;16.556;2023-04-25T11:12:17;7.40;99.90
11005;DHT22;5555;59.622;16.556;2023-04-25T11:14:43;7.30;99.90
11005;DHT22;5555;59.622;16.556;2023-04-25T11:17:09;7.60;99.90
11005;DHT22;5555;59.622;16.556;2023-04-25T11:19:36;7.60;99.90
11005;DHT22;5555;59.622;16.556;2023-04-25T11:22:02;7.70;99.90
11005;DHT22;5555;59.622;16.556;2023-04-25T11:24:29;7.80;99.90
11005;DHT22;5555;59.622;16.556;2023-04-25T11:26:56;7.60;99.90
11005;DHT22;5555;59.622;16.556;2023-04-25T11:29:23;7.20;99.90
11005;DHT22;5555;59.622;16.556;2023-04-25T11:31:48;7.40;99.90
11005;DHT22;5555;59.622;16.556;2023-04-25T11:34:18;7.50;99.90
11005;DHT22;5555;59.622;16.556;2023-04-25T11:36:45;7.40;99.90
11005;DHT22;5555;59.622;16.556;2023-04-25T11:39:11;7.30;99.90
11005;DHT22;5555;59.622;16.556;2023-04-25T11:41:40;7.30;99.90
11005;DHT22;5555;59.622;16.556;2023-04-25T11:44:06;7.30;99.90
11005;DHT22;5555;59.622;16.556;2023-04-25T11:46:34;7.40;99.90
11005;DHT22;5555;59.622;16.556;2023-04-25T11:49:00;7.60;99.90
11005;DHT22;5555;59.622;16.556;2023-04-25T11:51:26;7.50;99.90
11005;DHT22;5555;59.622;16.556;2023-04-25T11:53:52;7.60;99.90
11005;DHT22;5555;59.622;16.556;2023-04-25T11:56:18;7.90;99.90
11005;DHT22;5555;59.622;16.556;2023-04-25T11:58:57;8.00;99.90
11005;DHT22;5555;59.622;16.556;2023-04-25T12:01:39;8.50;99.90
11005;DHT22;5555;59.622;16.556;2023-04-25T12:04:18;8.40;99.90
11005;DHT22;5555;59.622;16.556;2023-04-25T12:06:45;8.30;99.90
11005;DHT22;5555;59.622;16.556;2023-04-25T12:09:15;8.50;99.90
11005;DHT22;5555;59.622;16.556;2023-04-25T12:11:48;8.60;99.90
11005;DHT22;5555;59.622;16.556;2023-04-25T12:14:27;8.50;99.90
11005;DHT22;5555;59.622;16.556;2023-04-25T12:16:58;8.50;99.90
11005;DHT22;5555;59.622;16.556;2023-04-25T12:19:24;8.30;99.90
11005;DHT22;5555;59.622;16.556;2023-04-25T12:21:50;8.10;99.90
11005;DHT22;5555;59.622;16.556;2023-04-25T12:24:26;8.40;99.90
11005;DHT22;5555;59.622;16.556;2023-04-25T12:27:04;8.30;99.90
11005;DHT22;5555;59.622;16.556;2023-04-25T12:29:31;8.50;99.90
11005;DHT22;5555;59.622;16.556;2023-04-25T12:31:57;8.60;99.90
11005;DHT22;5555;59.622;16.556;2023-04-25T12:34:23;8.80;99.90
11005;DHT22;5555;59.622;16.556;2023-04-25T12:36:51;8.60;99.90
11005;DHT22;5555;59.622;16.556;2023-04-25T12:39:17;8.70;99.90
11005;DHT22;5555;59.622;16.556;2023-04-25T12:41:46;8.90;99.90
11005;DHT22;5555;59.622;16.556;2023-04-25T12:44:12;8.80;99.90
11005;DHT22;5555;59.622;16.556;2023-04-25T12:46:38;8.90;99.90
11005;DHT22;5555;59.622;16.556;2023-04-25T12:49:05;8.60;99.90
11005;DHT22;5555;59.622;16.556;2023-04-25T12:51:32;8.50;99.90
11005;DHT22;5555;59.622;16.556;2023-04-25T12:53:59;8.90;99.90
11005;DHT22;5555;59.622;16.556;2023-04-25T12:56:26;9.10;99.90
11005;DHT22;5555;59.622;16.556;2023-04-25T12:58:52;8.90;99.90
11005;DHT22;5555;59.622;16.556;2023-04-25T13:01:17;8.40;99.90
11005;DHT22;5555;59.622;16.556;2023-04-25T13:03:43;8.00;99.90
11005;DHT22;5555;59.622;16.556;2023-04-25T13:06:09;7.80;99.90
11005;DHT22;5555;59.622;16.556;2023-04-25T13:08:34;8.00;99.90
11005;DHT22;5555;59.622;16.556;2023-04-25T13:11:02;8.00;99.90
11005;DHT22;5555;59.622;16.556;2023-04-25T13:13:28;8.30;99.90
11005;DHT22;5555;59.622;16.556;2023-04-25T13:15:54;8.20;99.90
11005;DHT22;5555;59.622;16.556;2023-04-25T13:18:20;8.10;99.90
11005;DHT22;5555;59.622;16.556;2023-04-25T13:20:46;8.00;99.90
11005;DHT22;5555;59.622;16.556;2023-04-25T13:23:11;8.10;99.90
11005;DHT22;5555;59.622;16.556;2023-04-25T13:25:37;8.20;99.90
11005;DHT22;5555;59.622;16.556;2023-04-25T13:28:03;8.40;99.90
11005;DHT22;5555;59.622;16.556;2023-04-25T13:30:29;8.40;99.90
11005;DHT22;5555;59.622;16.556;2023-04-25T13:32:54;8.50;99.90
11005;DHT22;5555;59.622;16.556;2023-04-25T13:35:22;8.40;99.90
11005;DHT22;5555;59.622;16.556;2023-04-25T13:37:48;8.30;99.90
11005;DHT22;5555;59.622;16.556;2023-04-25T13:40:13;8.20;99.90
11005;DHT22;5555;59.622;16.556;2023-04-25T13:42:39;8.00;99.90
11005;DHT22;5555;59.622;16.556;2023-04-25T13:45:06;7.90;99.90
11005;DHT22;5555;59.622;16.556;2023-04-25T13:47:32;7.90;99.90
11005;DHT22;5555;59.622;16.556;2023-04-25T13:49:57;7.60;99.90
11005;DHT22;5555;59.622;16.556;2023-04-25T13:52:23;7.70;99.90
11005;DHT22;5555;59.622;16.556;2023-04-25T13:54:52;7.70;99.90
11005;DHT22;5555;59.622;16.556;2023-04-25T13:57:18;7.60;99.90
11005;DHT22;5555;59.622;16.556;2023-04-25T13:59:43;7.70;99.90
11005;DHT22;5555;59.622;16.556;2023-04-25T14:02:09;7.70;99.90
11005;DHT22;5555;59.622;16.556;2023-04-25T14:04:35;7.60;99.90
11005;DHT22;5555;59.622;16.556;2023-04-25T14:07:03;7.70;99.90
11005;DHT22;5555;59.622;16.556;2023-04-25T14:09:30;7.80;99.90
11005;DHT22;5555;59.622;16.556;2023-04-25T14:11:55;7.70;99.90
11005;DHT22;5555;59.622;16.556;2023-04-25T14:14:22;7.80;99.90
11005;DHT22;5555;59.622;16.556;2023-04-25T14:16:49;7.80;99.90
11005;DHT22;5555;59.622;16.556;2023-04-25T14:19:16;7.80;99.90
11005;DHT22;5555;59.622;16.556;2023-04-25T14:21:42;7.80;99.90
11005;DHT22;5555;59.622;16.556;2023-04-25T14:24:08;7.80;99.90
11005;DHT22;5555;59.622;16.556;2023-04-25T14:26:35;7.90;99.90
11005;DHT22;5555;59.622;16.556;2023-04-25T14:29:06;7.70;99.90
11005;DHT22;5555;59.622;16.556;2023-04-25T14:31:33;7.60;99.90
11005;DHT22;5555;59.622;16.556;2023-04-25T14:33:59;7.60;99.90
11005;DHT22;5555;59.622;16.556;2023-04-25T14:36:26;7.50;99.90
11005;DHT22;5555;59.622;16.556;2023-04-25T14:38:52;7.40;99.90
11005;DHT22;5555;59.622;16.556;2023-04-25T14:41:18;7.30;99.90
11005;DHT22;5555;59.622;16.556;2023-04-25T14:43:43;7.40;99.90
11005;DHT22;5555;59.622;16.556;2023-04-25T14:46:10;7.40;99.90
11005;DHT22;5555;59.622;16.556;2023-04-25T14:48:36;7.40;99.90
11005;DHT22;5555;59.622;16.556;2023-04-25T14:51:01;7.30;99.90
11005;DHT22;5555;59.622;16.556;2023-04-25T14:53:27;7.40;99.90
11005;DHT22;5555;59.622;16.556;2023-04-25T14:55:53;7.40;99.90
11005;DHT22;5555;59.622;16.556;2023-04-25T14:58:19;7.30;99.90
11005;DHT22;5555;59.622;16.556;2023-04-25T15:00:45;7.30;99.90
11005;DHT22;5555;59.622;16.556;2023-04-25T15:03:11;7.30;99.90
11005;DHT22;5555;59.622;16.556;2023-04-25T15:05:38;7.30;99.90
11005;DHT22;5555;59.622;16.556;2023-04-25T15:08:04;7.20;99.90
11005;DHT22;5555;59.622;16.556;2023-04-25T15:10:30;7.20;99.90
11005;DHT22;5555;59.622;16.556;2023-04-25T15:12:56;7.30;99.90
11005;DHT22;5555;59.622;16.556;2023-04-25T15:15:22;7.30;99.90
11005;DHT22;5555;59.622;16.556;2023-04-25T15:17:49;7.30;99.90
11005;DHT22;5555;59.622;16.556;2023-04-25T15:20:15;7.30;99.90
11005;DHT22;5555;59.622;16.556;2023-04-25T15:22:42;7.30;99.90
11005;DHT22;5555;59.622;16.556;2023-04-25T15:25:09;7.30;99.90
11005;DHT22;5555;59.622;16.556;2023-04-25T15:27:38;7.20;99.90
11005;DHT22;5555;59.622;16.556;2023-04-25T15:30:13;7.20;99.90
11005;DHT22;5555;59.622;16.556;2023-04-25T15:32:43;7.20;99.90
11005;DHT22;5555;59.622;16.556;2023-04-25T15:35:09;7.10;99.90
11005;DHT22;5555;59.622;16.556;2023-04-25T15:37:35;7.20;99.90
11005;DHT22;5555;59.622;16.556;2023-04-25T15:40:06;7.10;99.90
11005;DHT22;5555;59.622;16.556;2023-04-25T15:42:43;7.10;99.90
11005;DHT22;5555;59.622;16.556;2023-04-25T15:45:10;7.10;99.90
11005;DHT22;5555;59.622;16.556;2023-04-25T15:47:37;7.10;99.90
11005;DHT22;5555;59.622;16.556;2023-04-25T15:50:05;7.10;99.90